Time;durP1;ratioP1;P1;durP2;ratioP2;P2;SDS_P1;SDS_P2;PMS_P1;PMS_P2;Temp;Humidity;BMP_temperature;BMP_pressure;BME280_temperature;BME280_humidity;BME280_pressure;Samples;Min_cycle;Max_cycle;Signal;HPM_P1;HPM_P2
2023/01/02 00:01:04;;;;;;;7.20;3.33;;;15.60;99.90;;;;;;5056322;28;20634;-31
2023/01/02 00:03:31;;;;;;;5.03;2.83;;;15.60;99.90;;;;;;5057828;28;20204;-31
2023/01/02 00:06:02;;;;;;;9.87;2.70;;;15.60;99.90;;;;;;5065580;28;20286;-32
2023/01/02 00:08:29;;;;;;;10.30;3.03;;;15.60;99.90;;;;;;5065088;28;20203;-31
2023/01/02 00:11:01;;;;;;;6.80;3.03;;;15.60;99.90;;;;;;5065394;28;20636;-31
2023/01/02 00:13:31;;;;;;;9.90;3.10;;;15.70;99.90;;;;;;5053514;28;20220;-32
2023/01/02 00:16:02;;;;;;;6.70;2.53;;;15.70;99.90;;;;;;5060310;28;20204;-31
2023/01/02 00:18:31;;;;;;;7.87;3.20;;;15.70;99.90;;;;;;5045097;28;20738;-31
2023/01/02 00:21:08;;;;;;;6.07;2.73;;;15.70;99.90;;;;;;5059369;28;20227;-31
2023/01/02 00:23:38;;;;;;;8.27;2.70;;;15.80;99.90;;;;;;5045049;28;20231;-31
2023/01/02 00:26:08;;;;;;;5.90;2.57;;;15.80;99.90;;;;;;5045299;28;20196;-31
2023/01/02 00:28:36;;;;;;;6.50;2.97;;;15.80;99.90;;;;;;5044310;28;20293;-31
2023/01/02 00:31:12;;;;;;;6.57;2.80;;;15.90;99.90;;;;;;5045138;28;20679;-31
2023/01/02 00:33:42;;;;;;;6.53;2.53;;;15.90;99.90;;;;;;5045310;28;20223;-31
2023/01/02 00:36:12;;;;;;;9.70;3.07;;;15.90;99.90;;;;;;5059874;28;20234;-32
2023/01/02 00:38:44;;;;;;;8.53;2.77;;;15.80;99.90;;;;;;5044832;28;20813;-32
2023/01/02 00:41:13;;;;;;;5.23;2.50;;;15.80;99.90;;;;;;5043796;28;20785;-33
2023/01/02 00:43:42;;;;;;;5.23;2.43;;;15.90;99.90;;;;;;5047770;28;20314;-32
2023/01/02 00:46:11;;;;;;;7.40;2.80;;;15.90;99.90;;;;;;5045389;28;20235;-32
2023/01/02 00:48:39;;;;;;;8.13;2.90;;;15.90;99.90;;;;;;5045116;28;20590;-33
2023/01/02 00:51:07;;;;;;;5.70;2.57;;;15.90;99.90;;;;;;5044982;28;20330;-32
2023/01/02 00:53:35;;;;;;;9.53;3.03;;;15.90;99.90;;;;;;5044710;28;20204;-32
2023/01/02 00:56:02;;;;;;;6.80;3.03;;;15.80;99.90;;;;;;5045253;28;20232;-32
2023/01/02 00:58:37;;;;;;;7.17;3.20;;;15.90;99.90;;;;;;5042278;28;20293;-32
2023/01/02 01:01:04;;;;;;;8.43;2.70;;;15.90;99.90;;;;;;5049285;28;20257;-33
2023/01/02 01:03:32;;;;;;;9.00;3.30;;;15.90;99.90;;;;;;5044558;28;20227;-32
2023/01/02 01:06:04;;;;;;;5.70;2.40;;;15.90;99.90;;;;;;5044821;28;20303;-33
2023/01/02 01:08:37;;;;;;;6.30;2.60;;;15.90;99.90;;;;;;5044903;28;20932;-33
2023/01/02 01:11:12;;;;;;;5.40;2.70;;;15.90;99.90;;;;;;5044879;28;20208;-32
2023/01/02 01:13:40;;;;;;;8.47;2.93;;;15.90;99.90;;;;;;5044049;28;20195;-32
2023/01/02 01:16:18;;;;;;;4.33;2.50;;;15.90;99.90;;;;;;5044945;28;20773;-32
2023/01/02 01:19:00;;;;;;;7.27;2.90;;;15.90;99.90;;;;;;5049640;28;20490;-33
2023/01/02 01:21:27;;;;;;;9.90;2.80;;;15.90;99.90;;;;;;5064508;28;20212;-32
2023/01/02 01:23:56;;;;;;;4.80;2.97;;;15.90;99.90;;;;;;5063436;28;20291;-32
2023/01/02 01:26:26;;;;;;;7.73;2.80;;;15.90;99.90;;;;;;5067940;28;20203;-32
2023/01/02 01:28:58;;;;;;;9.07;3.47;;;15.90;99.90;;;;;;5068315;28;20199;-32
2023/01/02 01:31:27;;;;;;;5.10;2.87;;;15.90;99.90;;;;;;5069231;28;20208;-32
2023/01/02 01:33:54;;;;;;;6.80;2.80;;;15.80;99.90;;;;;;5068191;28;20446;-32
2023/01/02 01:36:24;;;;;;;6.13;2.40;;;15.80;99.90;;;;;;5062271;28;20578;-32
2023/01/02 01:38:54;;;;;;;8.17;2.97;;;15.90;99.90;;;;;;5068466;28;20207;-32
2023/01/02 01:41:25;;;;;;;5.00;2.50;;;15.80;99.90;;;;;;5068564;28;20243;-32
2023/01/02 01:43:58;;;;;;;7.17;2.33;;;15.80;99.90;;;;;;5067355;28;20196;-32
2023/01/02 01:46:25;;;;;;;5.03;2.53;;;15.90;99.90;;;;;;5068861;28;20558;-32
2023/01/02 01:49:02;;;;;;;6.37;2.90;;;15.80;99.90;;;;;;5068142;28;20670;-32
2023/01/02 01:51:34;;;;;;;6.83;2.83;;;15.80;99.90;;;;;;5068041;28;20239;-33
2023/01/02 01:54:08;;;;;;;7.33;2.90;;;15.80;99.90;;;;;;5068252;28;20270;-32
2023/01/02 01:56:40;;;;;;;6.60;2.87;;;15.80;99.90;;;;;;5067771;28;20222;-32
2023/01/02 01:59:09;;;;;;;6.07;3.00;;;15.80;99.90;;;;;;5053928;28;20212;-32
2023/01/02 02:01:40;;;;;;;5.77;2.60;;;15.80;99.90;;;;;;5046578;28;20306;-31
2023/01/02 02:04:09;;;;;;;8.23;2.97;;;15.80;99.90;;;;;;5048110;28;20208;-32
2023/01/02 02:06:40;;;;;;;8.43;2.40;;;15.80;99.90;;;;;;5046630;28;20235;-32
2023/01/02 02:09:21;;;;;;;8.97;2.70;;;15.80;99.90;;;;;;5047990;28;20201;-32
2023/01/02 02:11:48;;;;;;;8.83;3.13;;;15.80;99.90;;;;;;5048949;28;20231;-32
2023/01/02 02:14:20;;;;;;;7.47;2.40;;;15.80;99.90;;;;;;5045896;28;20220;-32
2023/01/02 02:17:12;;;;;;;5.40;2.13;;;15.80;99.90;;;;;;5060772;28;20196;-32
2023/01/02 02:19:45;;;;;;;9.07;3.10;;;15.80;99.90;;;;;;5047718;28;20331;-32
2023/01/02 02:22:35;;;;;;;9.57;3.23;;;15.80;99.90;;;;;;5053110;28;20289;-33
2023/01/02 02:25:26;;;;;;;5.00;2.40;;;15.80;99.90;;;;;;5064533;28;20231;-32
2023/01/02 02:28:21;;;;;;;6.80;2.80;;;15.80;99.90;;;;;;5046938;28;20266;-32
2023/01/02 02:31:10;;;;;;;5.93;2.53;;;15.80;99.90;;;;;;5047838;28;20694;-32
2023/01/02 02:33:52;;;;;;;8.33;2.63;;;15.80;99.90;;;;;;5047196;28;20745;-33
2023/01/02 02:36:28;;;;;;;6.60;2.73;;;15.80;99.90;;;;;;5046864;28;20207;-32
2023/01/02 02:38:58;;;;;;;4.77;2.67;;;15.80;99.90;;;;;;5047114;28;20255;-32
2023/01/02 02:41:45;;;;;;;7.70;3.00;;;15.80;99.90;;;;;;5047695;28;20302;-32
2023/01/02 02:44:17;;;;;;;6.83;2.80;;;15.80;99.90;;;;;;5047108;28;20353;-33
2023/01/02 02:47:08;;;;;;;7.57;2.77;;;15.80;99.90;;;;;;5046886;28;20622;-33
2023/01/02 02:49:56;;;;;;;7.60;2.67;;;15.70;99.90;;;;;;5045386;28;20254;-32
2023/01/02 02:52:32;;;;;;;6.27;2.50;;;15.70;99.90;;;;;;5046922;28;20741;-33
2023/01/02 02:55:32;;;;;;;7.33;2.90;;;15.70;99.90;;;;;;5046807;28;20208;-33
2023/01/02 02:58:00;;;;;;;4.77;2.73;;;15.70;99.90;;;;;;5046232;28;20254;-33
2023/01/02 03:00:30;;;;;;;7.33;2.97;;;15.70;99.90;;;;;;5047130;28;20228;-31
2023/01/02 03:02:59;;;;;;;5.73;2.63;;;15.70;99.90;;;;;;5046530;28;20225;-32
2023/01/02 03:05:33;;;;;;;5.43;2.70;;;15.70;99.90;;;;;;5046649;28;20215;-32
2023/01/02 03:08:47;;;;;;;6.90;2.50;;;15.70;99.90;;;;;;5046548;28;20202;-31
2023/01/02 03:11:17;;;;;;;7.93;2.47;;;15.70;99.90;;;;;;5047002;28;20220;-31
2023/01/02 03:13:59;;;;;;;5.03;2.63;;;15.70;99.90;;;;;;5065041;28;20231;-31
2023/01/02 03:16:33;;;;;;;6.03;2.70;;;15.70;99.90;;;;;;5066530;28;20204;-32
2023/01/02 03:19:12;;;;;;;7.33;2.40;;;15.70;99.90;;;;;;5066669;28;20206;-31
2023/01/02 03:21:55;;;;;;;8.30;2.53;;;15.70;99.90;;;;;;5066557;28;20209;-32
2023/01/02 03:24:24;;;;;;;6.10;2.67;;;15.70;99.90;;;;;;5064695;28;20223;-32
2023/01/02 03:27:00;;;;;;;6.17;2.37;;;15.60;99.90;;;;;;5066399;28;20690;-31
2023/01/02 03:29:38;;;;;;;6.77;2.47;;;15.60;99.90;;;;;;5064627;28;20215;-31
2023/01/02 03:32:11;;;;;;;6.33;2.37;;;15.70;99.90;;;;;;5065798;28;20208;-31
2023/01/02 03:34:41;;;;;;;7.13;2.30;;;15.70;99.90;;;;;;5067229;28;20697;-31
2023/01/02 03:37:17;;;;;;;4.80;2.23;;;15.70;99.90;;;;;;5066668;28;20239;-32
2023/01/02 03:39:52;;;;;;;5.07;2.37;;;15.70;99.90;;;;;;5066443;28;20207;-31
2023/01/02 03:42:34;;;;;;;3.97;2.13;;;15.60;99.90;;;;;;5066559;28;20738;-31
2023/01/02 03:45:16;;;;;;;3.47;1.70;;;15.60;99.90;;;;;;5066343;28;20211;-30
2023/01/02 03:47:56;;;;;;;6.50;2.17;;;15.60;99.90;;;;;;5066074;28;20660;-32
2023/01/02 03:50:39;;;;;;;5.37;2.30;;;15.60;99.90;;;;;;5066437;28;20195;-31
2023/01/02 03:53:06;;;;;;;5.23;1.93;;;15.60;99.90;;;;;;5065627;28;20224;-32
2023/01/02 03:55:37;;;;;;;4.03;2.10;;;15.60;99.90;;;;;;5063449;28;20763;-31
2023/01/02 03:58:24;;;;;;;5.37;1.87;;;15.60;99.90;;;;;;5065589;28;20210;-31
2023/01/02 04:01:03;;;;;;;4.83;2.10;;;15.60;99.90;;;;;;5081595;28;20222;-31
2023/01/02 04:03:44;;;;;;;4.83;2.10;;;15.60;99.90;;;;;;5058491;28;20215;-31
2023/01/02 04:06:17;;;;;;;6.57;1.90;;;15.60;99.90;;;;;;5046446;28;20852;-31
2023/01/02 04:09:10;;;;;;;5.73;2.13;;;15.60;99.90;;;;;;5044656;28;20287;-31
2023/01/02 04:11:43;;;;;;;5.03;2.20;;;15.60;99.90;;;;;;5062030;28;20199;-31
2023/01/02 04:14:18;;;;;;;4.40;2.37;;;15.60;99.90;;;;;;5064883;28;20203;-31
2023/01/02 04:16:48;;;;;;;6.80;1.90;;;15.60;99.90;;;;;;5066088;28;20282;-31
2023/01/02 04:19:50;;;;;;;7.43;2.07;;;15.60;99.90;;;;;;5064935;28;20662;-31
2023/01/02 04:22:35;;;;;;;5.70;2.23;;;15.60;99.90;;;;;;5066285;28;20219;-31
2023/01/02 04:25:09;;;;;;;6.40;2.20;;;15.60;99.90;;;;;;5065539;28;20608;-31
2023/01/02 04:27:52;;;;;;;4.23;2.10;;;15.60;99.90;;;;;;5064267;28;20203;-31
2023/01/02 04:30:20;;;;;;;4.97;2.23;;;15.60;99.90;;;;;;5064811;28;20716;-31
2023/01/02 04:32:50;;;;;;;5.17;2.10;;;15.60;99.90;;;;;;5065060;28;20295;-33
2023/01/02 04:35:22;;;;;;;4.23;2.10;;;15.60;99.90;;;;;;5055545;28;20278;-34
2023/01/02 04:37:50;;;;;;;4.37;2.10;;;15.60;99.90;;;;;;5045631;28;20219;-33
2023/01/02 04:40:29;;;;;;;5.80;2.20;;;15.60;99.90;;;;;;5062010;28;20566;-34
2023/01/02 04:42:56;;;;;;;6.20;2.40;;;15.60;99.90;;;;;;5062931;28;20219;-31
2023/01/02 04:45:24;;;;;;;5.50;1.80;;;15.60;99.90;;;;;;5065191;28;20215;-33
2023/01/02 04:47:51;;;;;;;4.60;1.80;;;15.50;99.90;;;;;;5065436;28;20199;-33
2023/01/02 04:50:20;;;;;;;3.83;1.90;;;15.50;99.90;;;;;;5065486;28;20203;-33
2023/01/02 04:52:48;;;;;;;2.93;1.80;;;15.50;99.90;;;;;;5065660;28;20664;-33
2023/01/02 04:55:17;;;;;;;6.43;2.27;;;15.50;99.90;;;;;;5063932;28;20673;-33
2023/01/02 04:57:44;;;;;;;3.43;1.70;;;15.50;99.90;;;;;;5064918;28;20265;-33
2023/01/02 05:00:12;;;;;;;4.57;2.10;;;15.50;99.90;;;;;;5064652;28;20220;-33
2023/01/02 05:02:39;;;;;;;6.03;2.50;;;15.50;99.90;;;;;;5065296;28;20218;-32
2023/01/02 05:05:07;;;;;;;6.90;2.20;;;15.50;99.90;;;;;;5065496;28;20201;-33
2023/01/02 05:07:36;;;;;;;4.57;2.00;;;15.50;99.90;;;;;;5065097;28;20203;-33
2023/01/02 05:10:04;;;;;;;4.30;1.80;;;15.50;99.90;;;;;;5064959;28;20709;-32
2023/01/02 05:12:39;;;;;;;4.07;2.00;;;15.50;99.90;;;;;;5063403;28;20218;-33
2023/01/02 05:15:11;;;;;;;4.60;1.53;;;15.40;99.90;;;;;;5080165;28;20204;-32
2023/01/02 05:17:39;;;;;;;3.70;2.07;;;15.40;99.90;;;;;;5065039;28;20224;-33
2023/01/02 05:20:11;;;;;;;3.73;1.40;;;15.40;99.90;;;;;;5064080;28;20726;-33
2023/01/02 05:25:34;;;;;;;3.07;1.50;;;15.40;99.90;;;;;;5064250;28;20184;-33
2023/01/02 05:28:02;;;;;;;4.97;1.60;;;15.40;99.90;;;;;;5063301;28;20208;-32
2023/01/02 05:30:29;;;;;;;3.67;1.50;;;15.40;99.90;;;;;;5063123;28;20452;-33
2023/01/02 05:32:59;;;;;;;4.10;1.97;;;15.40;99.90;;;;;;5065245;28;20218;-33
2023/01/02 05:35:26;;;;;;;4.40;1.67;;;15.40;99.90;;;;;;5065197;28;20286;-33
2023/01/02 05:38:05;;;;;;;3.23;1.20;;;15.40;99.90;;;;;;5064718;28;20265;-33
2023/01/02 05:40:33;;;;;;;2.23;1.10;;;15.40;99.90;;;;;;5064933;28;20257;-32
2023/01/02 05:43:00;;;;;;;2.30;0.90;;;15.40;99.90;;;;;;5063279;28;20227;-33
2023/01/02 05:45:29;;;;;;;2.27;1.27;;;15.40;99.90;;;;;;5064756;28;20198;-33
2023/01/02 05:47:59;;;;;;;2.27;1.00;;;15.40;99.90;;;;;;5064224;28;20231;-33
2023/01/02 05:50:31;;;;;;;1.73;0.77;;;15.40;99.90;;;;;;5064847;28;20701;-33
2023/01/02 05:52:58;;;;;;;1.03;0.90;;;15.40;99.90;;;;;;5064498;28;20654;-33
2023/01/02 05:55:27;;;;;;;3.23;1.40;;;15.40;99.90;;;;;;5064826;28;20208;-34
2023/01/02 05:58:01;;;;;;;1.30;0.70;;;15.30;99.90;;;;;;5062472;28;20706;-33
2023/01/02 06:00:28;;;;;;;3.07;0.80;;;15.30;99.90;;;;;;5044370;28;20669;-33
2023/01/02 06:02:57;;;;;;;1.17;0.80;;;15.30;99.90;;;;;;5044387;28;20235;-33
2023/01/02 06:05:25;;;;;;;2.00;1.00;;;15.30;99.90;;;;;;5044780;28;20239;-33
2023/01/02 06:07:54;;;;;;;1.60;0.70;;;15.20;99.90;;;;;;5044101;28;20721;-32
2023/01/02 06:10:24;;;;;;;3.00;0.90;;;15.20;99.90;;;;;;5044116;28;20200;-32
2023/01/02 06:12:54;;;;;;;1.63;0.80;;;15.20;99.90;;;;;;5051157;28;20216;-32
2023/01/02 06:15:21;;;;;;;2.47;1.20;;;15.20;99.90;;;;;;5047833;28;20262;-31
2023/01/02 06:17:50;;;;;;;2.67;0.90;;;15.20;99.90;;;;;;5047982;28;20841;-31
2023/01/02 06:20:17;;;;;;;2.37;0.97;;;15.10;99.90;;;;;;5047702;28;20212;-31
2023/01/02 06:22:47;;;;;;;2.73;1.10;;;15.10;99.90;;;;;;5052149;28;20315;-31
2023/01/02 06:25:16;;;;;;;2.50;0.90;;;15.10;99.90;;;;;;5047507;28;20204;-32
2023/01/02 06:27:43;;;;;;;1.30;0.80;;;15.00;99.90;;;;;;5053209;28;20206;-31
2023/01/02 06:30:11;;;;;;;0.70;0.70;;;15.00;99.90;;;;;;5047019;28;20220;-31
2023/01/02 06:32:38;;;;;;;1.50;0.90;;;14.90;99.90;;;;;;5047437;28;20263;-32
2023/01/02 06:35:08;;;;;;;1.10;0.93;;;14.80;99.90;;;;;;5048208;28;20201;-32
2023/01/02 06:37:40;;;;;;;1.30;1.00;;;14.70;99.90;;;;;;5046210;28;20196;-31
2023/01/02 06:40:08;;;;;;;2.03;1.10;;;14.60;99.90;;;;;;5047629;28;20239;-32
2023/01/02 06:42:37;;;;;;;1.27;1.17;;;14.50;99.90;;;;;;5058518;28;20235;-32
2023/01/02 06:45:05;;;;;;;1.60;1.43;;;14.40;99.90;;;;;;5067330;28;20383;-32
2023/01/02 06:47:34;;;;;;;1.63;1.53;;;14.40;99.90;;;;;;5067555;28;20187;-32
2023/01/02 06:50:02;;;;;;;1.40;1.30;;;14.30;99.90;;;;;;5059033;28;21134;-32
2023/01/02 06:52:31;;;;;;;1.80;1.63;;;14.30;99.90;;;;;;5059982;28;20266;-32
2023/01/02 06:55:01;;;;;;;3.30;2.40;;;14.20;99.90;;;;;;5062955;28;20302;-31
2023/01/02 06:57:29;;;;;;;2.87;2.63;;;14.20;99.90;;;;;;5063740;28;20231;-32
2023/01/02 06:59:57;;;;;;;2.40;2.20;;;14.10;99.90;;;;;;5065699;28;20654;-31
2023/01/02 07:02:24;;;;;;;2.67;2.47;;;14.10;99.90;;;;;;5064851;28;20208;-32
2023/01/02 07:04:51;;;;;;;2.83;2.63;;;14.00;99.90;;;;;;5061912;28;20223;-31
2023/01/02 07:07:18;;;;;;;2.43;2.23;;;14.00;99.90;;;;;;5056307;28;20832;-32
2023/01/02 07:09:48;;;;;;;3.07;2.50;;;14.00;99.90;;;;;;5058728;28;20308;-32
2023/01/02 07:12:18;;;;;;;3.40;3.10;;;14.00;99.90;;;;;;5066520;28;20662;-32
2023/01/02 07:14:47;;;;;;;3.50;3.20;;;13.90;99.90;;;;;;5066575;28;21036;-32
2023/01/02 07:17:18;;;;;;;3.97;3.57;;;13.90;99.90;;;;;;5062024;28;20637;-32
2023/01/02 07:19:45;;;;;;;3.90;3.60;;;13.90;99.90;;;;;;5048646;28;20208;-31
2023/01/02 07:22:19;;;;;;;3.97;3.67;;;13.90;99.90;;;;;;5060230;28;20210;-32
2023/01/02 07:24:49;;;;;;;4.50;4.10;;;13.80;99.90;;;;;;5061177;28;20637;-32
2023/01/02 07:27:16;;;;;;;4.67;4.23;;;13.80;99.90;;;;;;5057306;28;20287;-31
2023/01/02 07:29:46;;;;;;;3.90;3.50;;;13.80;99.90;;;;;;5063905;28;20662;-32
2023/01/02 07:32:15;;;;;;;5.33;4.37;;;13.80;99.90;;;;;;5063415;28;20223;-32
2023/01/02 07:34:50;;;;;;;5.23;3.93;;;13.80;99.90;;;;;;5063239;28;20251;-32
2023/01/02 07:37:20;;;;;;;4.40;3.93;;;13.70;99.90;;;;;;5072986;28;20250;-32
2023/01/02 07:39:47;;;;;;;4.37;3.97;;;13.70;99.90;;;;;;5046480;28;20258;-32
2023/01/02 07:42:15;;;;;;;5.20;4.70;;;13.70;99.90;;;;;;5064459;28;20272;-32
2023/01/02 07:44:44;;;;;;;5.40;4.67;;;13.70;99.90;;;;;;5059176;28;20632;-31
2023/01/02 07:47:11;;;;;;;7.10;5.63;;;13.70;99.90;;;;;;5066555;28;20227;-32
2023/01/02 07:49:41;;;;;;;7.43;5.40;;;13.70;99.90;;;;;;5063258;28;20216;-31
2023/01/02 07:52:12;;;;;;;6.83;6.13;;;13.70;99.90;;;;;;5064058;28;20246;-31
2023/01/02 07:54:44;;;;;;;6.10;5.50;;;13.70;99.90;;;;;;5061273;28;20293;-31
2023/01/02 07:57:16;;;;;;;7.57;6.23;;;13.70;99.90;;;;;;5062638;28;20318;-31
2023/01/02 07:59:45;;;;;;;6.53;5.50;;;13.70;99.90;;;;;;5046126;28;20204;-32
2023/01/02 08:02:13;;;;;;;6.93;6.07;;;13.70;99.90;;;;;;5077167;28;20294;-31
2023/01/02 08:04:42;;;;;;;6.90;6.20;;;13.70;99.90;;;;;;5075375;28;20227;-31
2023/01/02 08:07:12;;;;;;;7.57;6.27;;;13.70;99.90;;;;;;5073295;28;20979;-32
2023/01/02 08:09:41;;;;;;;6.93;6.23;;;13.80;99.90;;;;;;5078988;28;20196;-31
2023/01/02 08:12:11;;;;;;;6.53;5.73;;;13.70;99.90;;;;;;5064297;28;20545;-30
2023/01/02 08:14:38;;;;;;;8.43;7.10;;;13.70;99.90;;;;;;5064123;28;20594;-29
2023/01/02 08:17:08;;;;;;;6.57;5.77;;;13.80;99.90;;;;;;5064604;28;20694;-29
2023/01/02 08:19:37;;;;;;;7.80;6.27;;;13.80;99.90;;;;;;5064329;28;20424;-30
2023/01/02 08:22:05;;;;;;;6.47;5.87;;;13.70;99.90;;;;;;5065660;28;20502;-29
2023/01/02 08:24:34;;;;;;;8.73;6.00;;;13.70;99.90;;;;;;5077078;28;20301;-31
2023/01/02 08:27:04;;;;;;;6.23;5.47;;;13.70;99.90;;;;;;5063658;28;20744;-31
2023/01/02 08:29:31;;;;;;;6.57;5.27;;;13.70;99.90;;;;;;5064968;28;20299;-31
2023/01/02 08:32:01;;;;;;;7.03;5.50;;;13.70;99.90;;;;;;5064217;28;20211;-31
2023/01/02 08:34:30;;;;;;;5.27;4.77;;;13.70;99.90;;;;;;5063726;28;20204;-31
2023/01/02 08:37:00;;;;;;;5.73;4.67;;;13.80;99.90;;;;;;5054169;28;20533;-31
2023/01/02 08:39:28;;;;;;;5.50;4.73;;;13.80;99.90;;;;;;5062532;28;20204;-31
2023/01/02 08:41:58;;;;;;;5.33;4.53;;;13.80;99.90;;;;;;5063802;28;20207;-31
2023/01/02 08:44:27;;;;;;;5.87;4.67;;;13.80;99.90;;;;;;5064387;28;20331;-31
2023/01/02 08:46:54;;;;;;;5.00;4.33;;;13.80;99.90;;;;;;5064062;28;20200;-31
2023/01/02 08:49:23;;;;;;;3.50;3.20;;;13.80;99.90;;;;;;5060347;28;20226;-31
2023/01/02 08:51:51;;;;;;;2.97;2.50;;;13.80;99.90;;;;;;5074245;28;20728;-32
2023/01/02 08:54:19;;;;;;;2.27;2.03;;;13.80;99.90;;;;;;5062619;28;20203;-31
2023/01/02 08:56:48;;;;;;;1.63;1.53;;;13.70;99.90;;;;;;5073048;28;20403;-31
2023/01/02 08:59:15;;;;;;;2.07;1.50;;;13.70;99.90;;;;;;5063173;28;20199;-31
2023/01/02 09:01:48;;;;;;;2.23;1.40;;;13.80;99.90;;;;;;5062557;28;20749;-32
2023/01/02 09:04:15;;;;;;;2.00;1.60;;;13.70;99.90;;;;;;5063240;28;20791;-32
2023/01/02 09:06:48;;;;;;;1.20;1.10;;;13.70;99.90;;;;;;5049187;28;20220;-32
2023/01/02 09:09:17;;;;;;;1.47;1.37;;;13.70;99.90;;;;;;5055373;28;20208;-32
2023/01/02 09:11:49;;;;;;;1.70;1.60;;;13.70;99.90;;;;;;5060110;28;20200;-32
2023/01/02 09:14:18;;;;;;;1.50;1.40;;;13.70;99.90;;;;;;5063745;28;20211;-32
2023/01/02 09:16:46;;;;;;;1.53;1.43;;;13.70;99.90;;;;;;5063141;28;20195;-32
2023/01/02 09:19:13;;;;;;;1.50;1.40;;;13.70;99.90;;;;;;5060501;28;20752;-32
2023/01/02 09:21:43;;;;;;;1.90;1.67;;;13.70;99.90;;;;;;5060699;28;20225;-32
2023/01/02 09:24:10;;;;;;;1.47;1.23;;;13.60;99.90;;;;;;5061999;28;20775;-32
2023/01/02 09:26:41;;;;;;;2.07;1.50;;;13.70;99.90;;;;;;5055127;28;20509;-31
2023/01/02 09:29:13;;;;;;;2.97;1.90;;;13.70;99.90;;;;;;5059691;28;20211;-31
2023/01/02 09:31:40;;;;;;;2.40;1.90;;;13.70;99.90;;;;;;5059513;28;20303;-31
2023/01/02 09:34:08;;;;;;;2.03;1.83;;;13.70;99.90;;;;;;5061717;28;20192;-32
2023/01/02 09:36:38;;;;;;;2.23;2.03;;;13.60;99.90;;;;;;5063688;28;20203;-32
2023/01/02 09:39:08;;;;;;;4.37;2.40;;;13.70;99.90;;;;;;5063287;28;20221;-32
2023/01/02 09:41:44;;;;;;;2.60;2.40;;;13.70;99.90;;;;;;5057018;28;20211;-31
2023/01/02 09:44:35;;;;;;;2.63;2.43;;;13.70;99.90;;;;;;5063564;28;20246;-32
2023/01/02 09:47:10;;;;;;;2.67;2.40;;;13.70;99.90;;;;;;5067138;28;20647;-32
2023/01/02 09:49:52;;;;;;;2.43;2.23;;;13.70;99.90;;;;;;5066438;28;20207;-31
2023/01/02 09:52:31;;;;;;;3.53;2.50;;;13.70;99.90;;;;;;5066736;28;20253;-32
2023/01/02 09:55:04;;;;;;;3.10;2.37;;;13.70;99.90;;;;;;5066842;28;20655;-32
2023/01/02 09:57:48;;;;;;;2.30;2.07;;;13.60;99.90;;;;;;5059796;28;20608;-32
2023/01/02 10:00:25;;;;;;;2.83;1.90;;;13.70;99.90;;;;;;5066795;28;20207;-32
2023/01/02 10:03:10;;;;;;;2.80;1.93;;;13.70;99.90;;;;;;5063161;28;20317;-32
2023/01/02 10:06:07;;;;;;;2.10;1.80;;;13.60;99.90;;;;;;5062363;28;20224;-32
2023/01/02 10:08:40;;;;;;;2.20;2.00;;;13.70;99.90;;;;;;5063509;28;20215;-31
2023/01/02 10:11:27;;;;;;;1.97;1.50;;;13.60;99.90;;;;;;5065690;28;20896;-31
2023/01/02 10:14:17;;;;;;;1.87;1.53;;;13.60;99.90;;;;;;5059641;28;20202;-32
2023/01/02 10:16:55;;;;;;;2.03;1.50;;;13.70;99.90;;;;;;5062878;28;20216;-31
2023/01/02 10:19:30;;;;;;;2.97;1.70;;;13.70;99.90;;;;;;5065595;28;20842;-32
2023/01/02 10:22:00;;;;;;;2.27;1.90;;;13.70;99.90;;;;;;5065783;28;20211;-32
2023/01/02 10:24:38;;;;;;;2.40;2.20;;;13.70;99.90;;;;;;5065332;28;20627;-32
2023/01/02 10:27:15;;;;;;;2.63;2.07;;;13.70;99.90;;;;;;5065311;28;20589;-32
2023/01/02 10:30:08;;;;;;;3.77;2.17;;;13.60;99.90;;;;;;5066379;28;20771;-32
2023/01/02 10:32:42;;;;;;;3.00;2.10;;;13.70;99.90;;;;;;5059967;28;20261;-32
2023/01/02 10:35:22;;;;;;;2.60;2.07;;;13.70;99.90;;;;;;5063179;28;20240;-32
2023/01/02 10:37:49;;;;;;;2.10;1.90;;;13.70;99.90;;;;;;5064229;28;20227;-32
2023/01/02 10:40:16;;;;;;;3.00;2.10;;;13.70;99.90;;;;;;5063912;28;20234;-32
2023/01/02 10:42:44;;;;;;;2.60;2.00;;;13.70;99.90;;;;;;5060574;28;20226;-32
2023/01/02 10:45:14;;;;;;;2.97;1.70;;;13.70;99.90;;;;;;5066468;28;20251;-32
2023/01/02 10:47:46;;;;;;;2.20;2.00;;;13.70;99.90;;;;;;5064547;28;20635;-32
2023/01/02 10:50:24;;;;;;;2.53;1.70;;;13.70;99.90;;;;;;5066668;28;20287;-32
2023/01/02 10:53:35;;;;;;;2.53;1.90;;;13.70;99.90;;;;;;5071789;28;20231;-32
2023/01/02 10:56:06;;;;;;;2.57;1.40;;;13.70;99.90;;;;;;5059946;28;20203;-31
2023/01/02 10:58:43;;;;;;;2.13;1.50;;;13.70;99.90;;;;;;5062428;28;20207;-32
2023/01/02 11:01:17;;;;;;;2.37;1.80;;;13.70;99.90;;;;;;5065157;28;20534;-32
2023/01/02 11:04:08;;;;;;;2.20;1.70;;;13.70;99.90;;;;;;5059402;28;20195;-31
2023/01/02 11:06:49;;;;;;;3.60;1.70;;;13.70;99.90;;;;;;5046611;28;20200;-32
2023/01/02 11:09:20;;;;;;;2.43;1.53;;;13.70;99.90;;;;;;5076916;28;20259;-32
2023/01/02 11:11:57;;;;;;;2.20;1.47;;;13.70;99.90;;;;;;5065992;28;20207;-32
2023/01/02 11:14:32;;;;;;;1.63;1.50;;;13.70;99.90;;;;;;5065605;28;20248;-32
2023/01/02 11:17:19;;;;;;;2.27;1.50;;;13.80;99.90;;;;;;5062682;28;20215;-31
2023/01/02 11:19:53;;;;;;;2.80;1.43;;;13.80;99.90;;;;;;5056936;28;20330;-32
2023/01/02 11:22:31;;;;;;;2.30;1.70;;;13.80;99.90;;;;;;5053264;28;20381;-32
2023/01/02 11:25:03;;;;;;;2.80;1.60;;;13.80;99.90;;;;;;5064623;28;20609;-32
2023/01/02 11:27:42;;;;;;;1.90;1.20;;;13.80;99.90;;;;;;5064560;28;20199;-32
2023/01/02 11:30:37;;;;;;;3.27;1.40;;;13.80;99.90;;;;;;5062708;28;20815;-32
2023/01/02 11:33:25;;;;;;;2.77;1.50;;;13.80;99.90;;;;;;5060307;28;20207;-31
2023/01/02 11:36:05;;;;;;;1.43;1.27;;;13.90;99.90;;;;;;5061154;28;20214;-32
2023/01/02 11:38:43;;;;;;;2.57;1.60;;;13.80;99.90;;;;;;5057926;28;20231;-32
2023/01/02 11:44:51;;;;;;;3.10;1.60;;;13.80;99.90;;;;;;5075974;28;20744;-31
2023/01/02 11:47:31;;;;;;;3.50;1.60;;;13.80;99.90;;;;;;5080605;28;20596;-31
2023/01/02 11:50:00;;;;;;;3.83;1.70;;;13.80;99.90;;;;;;5069616;28;20211;-31
2023/01/02 11:52:47;;;;;;;1.73;1.30;;;13.80;99.90;;;;;;5065456;28;20745;-31
2023/01/02 11:55:50;;;;;;;1.60;1.37;;;13.80;99.90;;;;;;5057801;28;20314;-31
2023/01/02 11:58:31;;;;;;;1.87;1.67;;;13.80;99.90;;;;;;5043388;28;20302;-31
2023/01/02 12:01:11;;;;;;;2.60;1.90;;;13.80;99.90;;;;;;5052743;28;20212;-31
2023/01/02 12:03:41;;;;;;;1.57;1.37;;;13.80;99.90;;;;;;5058276;28;20268;-32
2023/01/02 12:06:21;;;;;;;1.97;1.47;;;13.80;99.90;;;;;;5064001;28;20231;-31
2023/01/02 12:09:13;;;;;;;1.43;1.30;;;13.80;99.90;;;;;;5056825;28;20437;-31
2023/01/02 12:11:58;;;;;;;3.20;1.67;;;13.80;99.90;;;;;;5064628;28;20296;-31
2023/01/02 12:14:56;;;;;;;3.23;2.00;;;13.80;99.90;;;;;;5054521;28;20224;-31
2023/01/02 12:17:29;;;;;;;2.43;1.90;;;13.70;99.90;;;;;;5058714;28;20265;-31
2023/01/02 12:20:10;;;;;;;2.80;2.03;;;13.70;99.90;;;;;;5063141;28;20226;-31
2023/01/02 12:23:05;;;;;;;3.70;1.70;;;13.70;99.90;;;;;;5065451;28;20215;-31
2023/01/02 12:25:35;;;;;;;2.87;2.03;;;13.70;99.90;;;;;;5064426;28;20228;-31
2023/01/02 12:28:26;;;;;;;2.50;1.97;;;13.60;99.90;;;;;;5064129;28;20607;-31
2023/01/02 12:31:18;;;;;;;3.13;2.13;;;13.70;99.90;;;;;;5062951;28;20216;-31
2023/01/02 12:33:55;;;;;;;3.93;2.73;;;13.60;99.90;;;;;;5054433;28;20203;-31
2023/01/02 12:36:46;;;;;;;2.93;2.13;;;13.60;99.90;;;;;;5049128;28;20306;-31
2023/01/02 12:39:31;;;;;;;4.10;2.30;;;13.70;99.90;;;;;;5066687;28;20219;-31
2023/01/02 12:42:32;;;;;;;2.33;2.13;;;13.60;99.90;;;;;;5064626;28;20257;-31
2023/01/02 12:45:02;;;;;;;4.57;2.90;;;13.70;99.90;;;;;;5064772;28;20233;-31
2023/01/02 12:47:50;;;;;;;4.33;2.57;;;13.70;99.90;;;;;;5050593;28;20696;-32
2023/01/02 12:50:32;;;;;;;3.07;2.47;;;13.70;99.90;;;;;;5062699;28;20223;-31
2023/01/02 12:53:15;;;;;;;2.87;2.57;;;13.70;99.90;;;;;;5054927;28;20230;-31
2023/01/02 12:56:04;;;;;;;3.67;2.87;;;13.70;99.90;;;;;;5060196;28;20212;-31
2023/01/02 12:58:50;;;;;;;4.17;2.93;;;13.70;99.90;;;;;;5056421;28;20198;-31
2023/01/02 13:01:53;;;;;;;3.17;2.33;;;13.70;99.90;;;;;;5065234;28;20258;-31
2023/01/02 13:04:32;;;;;;;3.20;2.90;;;13.70;99.90;;;;;;5063188;28;20356;-31
2023/01/02 13:07:36;;;;;;;3.17;2.87;;;13.80;99.90;;;;;;5062923;28;20191;-31
2023/01/02 13:10:07;;;;;;;5.10;3.20;;;13.80;99.90;;;;;;5065806;28;20198;-31
2023/01/02 13:12:35;;;;;;;3.50;2.90;;;13.80;99.90;;;;;;5058357;28;21720;-31
2023/01/02 13:15:20;;;;;;;3.67;2.83;;;13.80;99.90;;;;;;5056160;28;20216;-31
2023/01/02 13:18:20;;;;;;;4.53;2.80;;;13.80;99.90;;;;;;5062586;28;20222;-31
2023/01/02 13:21:12;;;;;;;4.00;2.47;;;13.80;99.90;;;;;;5066831;28;20253;-31
2023/01/02 13:23:43;;;;;;;4.17;2.20;;;13.80;99.90;;;;;;5068108;28;20672;-31
2023/01/02 13:26:14;;;;;;;3.30;2.63;;;13.80;99.90;;;;;;5067937;28;21108;-31
2023/01/02 13:29:01;;;;;;;2.27;1.70;;;13.80;99.90;;;;;;5066780;28;20195;-31
2023/01/02 13:31:35;;;;;;;2.63;2.00;;;13.80;99.90;;;;;;5048918;28;20215;-31